x

8452944 - Conimicut Light, Ri (cptr1) Weather Station

4:18 - Sat 29th Nov 2014 All times are EST. -5 hours from GMT.

  • Wind
    8mph, 10mph gusts
  • Sea Temp 44°f
  • Air Temp 25°f
  • Sea Pressure 1025.2mb
  • 8452944 - Conimicut Light, Ri
  • 8452944 - Conimicut Light, Ri

More Historic Weather Station data

Upgrade to MSW Pro to gain access to the past 30 days of data for over 8000 Wavebouys and Weather Stations around the globe.

Join Pro

Comparision Forecast

View Surf forecast
   
sam. 11/29 4:18 8 10 mph 1025.2mb 44f 25f
4:12 9 10 mph 1025.2mb 44f 25f
4:06 10 11 mph 1025.2mb 44f 25f
4:00 9 11 mph 1025.2mb 44f 25f
3:48 10 13 mph 1025.1mb 44f 25f
3:42 10 13 mph 1025.2mb 44f 25f
3:36 11 15 mph 1025.1mb 44f 26f
3:30 11 13 mph 1025.1mb 44f 26f
3:24 10 13 mph 1025.1mb 44f 26f
3:18 11 13 mph 1025.1mb 44f 25f
3:12 11 13 mph 1025mb 44f 26f
3:06 10 13 mph 1025mb 44f 26f
2:54 10 13 mph 1024.9mb 44f 26f
2:30 11 14 mph 1024.6mb 44f 26f
2:24 10 13 mph 1024.6mb 44f 26f
2:18 10 11 mph 1024.7mb 44f 26f
2:12 11 14 mph 1024.7mb 44f 26f
2:06 11 14 mph 1024.6mb 44f 26f
2:00 11 14 mph 1024.5mb 44f 27f
1:54 10 14 mph 1024.5mb 44f 26f
1:48 11 13 mph 1024.3mb 44f 26f
1:42 11 14 mph 1024.2mb 44f 27f
1:36 11 13 mph 1024.2mb 44f 27f
1:18 11 14 mph 1023.9mb 44f 27f
1:12 13 14 mph 1023.8mb 44f 27f
12:30 14 16 mph 1023.7mb 45f 27f
12:18 11 16 mph 1023.8mb 45f 27f
12:12 13 15 mph 1023.8mb 45f 28f
12:06 14 17 mph 1023.7mb 45f 28f
ven. 11/28 11:48 11 15 mph 1023.7mb 45f 28f
11:42 14 15 mph 1023.7mb 45f 28f
11:36 14 16 mph 1023.7mb 45f 28f
11:30 13 15 mph 1023.7mb 45f 28f
11:24 14 16 mph 1023.6mb 45f 28f
11:18 13 16 mph 1023.5mb 45f 28f
11:12 11 15 mph 1023.5mb 45f 28f
11:06 11 15 mph 1023.4mb 45f 28f
10:42 9 14 mph 1023.1mb 45f 28f
10:36 11 14 mph 1023.1mb 45f 28f
10:30 11 14 mph 1023mb 45f 28f
10:24 11 16 mph 1022.9mb 46f 28f
10:18 11 14 mph 1022.9mb 46f 29f
10:12 13 15 mph 1022.9mb 46f 29f
9:54 9 14 mph 1022.8mb 45f 29f
9:48 11 15 mph 1022.9mb 45f 29f
9:42 13 17 mph 1022.8mb 45f 29f
9:36 14 17 mph 1022.6mb 45f 29f
9:12 13 17 mph 1022.6mb 45f 30f
9:06 14 18 mph 1022.5mb 45f 30f
9:00 15 21 mph 1022.2mb 45f 30f
8:54 15 17 mph 1022.2mb 45f 30f
8:48 15 20 mph 1022.3mb 45f 30f
8:42 16 22 mph 1022.3mb 45f 30f
8:36 15 21 mph 1022.2mb 45f 30f
8:24 16 21 mph 1022.2mb 45f 31f
8:18 16 22 mph 1022.1mb 45f 30f
8:12 17 21 mph 1022.1mb 45f 30f
8:00 20 23 mph 1021.9mb 45f 30f
7:54 21 23 mph 1021.9mb 45f 31f
7:48 20 24 mph 1021.9mb 45f 31f
7:42 22 24 mph 1021.8mb 45f 31f
7:36 21 25 mph 1021.8mb 45f 31f
7:30 23 24 mph 1021.7mb 45f 31f
7:24 21 24 mph 1021.7mb 45f 31f
7:18 20 24 mph 1021.8mb 45f 32f
7:12 20 22 mph 1021.8mb 45f 31f
7:00 23 29 mph 1021.8mb 45f 32f
6:54 23 26 mph 1021.7mb 45f 32f
6:48 22 26 mph 1021.6mb 45f 32f
6:42 21 25 mph 1021.6mb 45f 32f
6:36 16 18 mph 1021.6mb 45f 33f
6:30 14 17 mph 1021.5mb 45f 33f
6:24 17 21 mph 1021.4mb 45f 33f
6:18 16 22 mph 1021.3mb 45f 33f
6:12 20 22 mph 1021.2mb 45f 33f
6:06 14 16 mph 1021.1mb 45f 33f
6:00 14 16 mph 1021mb 45f 33f
5:54 13 15 mph 1020.9mb 45f 33f
5:48 15 17 mph 1020.8mb 45f 33f
5:42 15 20 mph 1020.8mb 45f 33f
5:36 14 16 mph 1020.7mb 45f 34f
5:30 11 14 mph 1020.8mb 45f 34f
5:24 13 15 mph 1020.7mb 45f 33f
5:18 13 16 mph 1020.6mb 45f 34f
5:12 15 18 mph 1020.5mb 45f 34f
5:06 16 20 mph 1020.3mb 45f 34f
5:00 18 24 mph 1020.2mb 45f 34f
4:54 18 22 mph 1020mb 45f 34f
4:48 17 21 mph 1019.9mb 45f 35f
4:42 20 22 mph 1019.9mb 45f 35f
4:36 20 23 mph 1019.7mb 45f 35f
4:30 20 22 mph 1019.6mb 45f 35f
4:24 20 22 mph 1019.5mb 45f 35f
4:18 20 25 mph 1019.4mb 45f 35f
4:12 24 26 mph 1019.2mb 45f 35f
4:06 21 28 mph 1019.1mb 45f 36f
4:00 25 30 mph 1018.9mb 45f 36f
3:54 28 30 mph 1018.8mb 45f 36f
3:48 25 32 mph 1018.8mb 45f 37f
3:42 26 31 mph 1018.7mb 45f 37f
3:36 20 26 mph 1018.8mb 45f 37f
3:30 21 25 mph 1018.7mb 45f 37f
3:24 21 28 mph 1018.7mb 45f 36f
3:18 21 26 mph 1018.6mb 45f 36f
3:06 23 26 mph 1018.5mb 45f 36f
3:00 22 29 mph 1018.4mb 45f 36f
2:54 22 26 mph 1018.3mb 45f 36f
2:48 23 29 mph 1018.2mb 45f 36f
2:42 23 29 mph 1018.1mb 45f 36f
2:36 25 28 mph 1018mb 45f 36f
2:30 24 28 mph 1017.9mb 45f 36f
2:24 25 28 mph 1017.8mb 45f 36f
2:18 22 28 mph 1017.7mb 45f 37f
2:12 22 29 mph 1017.6mb 45f 37f
2:06 25 30 mph 1017.4mb 45f 37f
2:00 24 29 mph 1017.4mb 45f 38f
1:54 24 30 mph 1017.3mb 45f 38f
1:48 26 30 mph 1017.3mb 45f 37f
1:42 26 30 mph 1017.3mb 45f 37f
1:36 24 29 mph 1017.3mb 45f 37f
1:30 23 29 mph 1017.3mb 45f 37f
1:24 22 26 mph 1017.4mb 45f 37f
1:18 21 24 mph 1017.5mb 45f 36f
1:06 18 25 mph 1017.7mb 45f 35f
1:00 17 21 mph 1017.6mb 45f 36f
12:54 20 26 mph 1017.6mb 45f 36f
12:48 21 25 mph 1017.5mb 45f 36f
12:42 18 25 mph 1017.6mb 45f 35f
12:36 22 28 mph 1017.5mb 45f 34f
12:30 22 29 mph 1017.4mb 45f 35f
12:24 24 29 mph 1017.3mb 45f 35f
12:18 23 30 mph 1017.4mb 45f 35f
12:06 24 28 mph 1017.5mb 45f 34f
12:00 25 28 mph 1017.5mb 45f 34f
11:54 24 30 mph 1017.6mb 45f 34f
11:48 29 31 mph 1017.6mb 45f 34f
11:42 25 30 mph 1017.6mb 45f 34f
11:36 24 26 mph 1017.7mb 45f 34f
11:30 24 28 mph 1017.6mb 45f 34f
11:24 23 30 mph 1017.7mb 45f 34f
11:18 23 28 mph 1017.6mb 45f 35f
11:12 25 30 mph 1017.6mb 45f 34f
11:06 25 32 mph 1017.6mb 45f 34f
11:00 25 30 mph 1017.6mb 45f 35f
10:48 23 25 mph 1017.8mb 46f 35f
10:36 23 28 mph 1017.8mb 46f 35f
10:30 20 26 mph 1017.9mb 46f 35f
10:24 20 23 mph 1017.9mb 46f 34f
10:18 22 26 mph 1017.9mb 46f 34f
10:12 21 25 mph 1017.9mb 46f 34f
10:06 21 24 mph 1017.7mb 46f 34f
10:00 21 24 mph 1017.7mb 46f 34f
9:54 21 23 mph 1017.8mb 46f 33f
9:48 22 26 mph 1017.8mb 46f 33f
9:42 20 23 mph 1017.8mb 46f 34f
9:36 18 24 mph 1017.7mb 45f 33f
9:30 21 25 mph 1017.7mb 45f 33f
9:24 21 26 mph 1017.7mb 45f 33f
9:18 22 28 mph 1017.8mb 45f 33f
9:12 18 23 mph 1017.8mb 45f 33f
9:06 20 22 mph 1017.7mb 45f 33f
9:00 18 23 mph 1017.6mb 45f 33f
8:54 20 23 mph 1017.5mb 45f 32f
8:48 17 22 mph 1017.4mb 45f 33f
8:42 18 25 mph 1017.4mb 45f 32f
8:30 17 22 mph 1017.5mb 45f 32f
8:24 21 23 mph 1017.4mb 45f 32f
8:18 18 21 mph 1017.4mb 45f 32f
8:12 18 22 mph 1017.3mb 45f 32f
8:06 17 23 mph 1017.2mb 45f 32f
8:00 17 22 mph 1017.2mb 45f 32f
7:48 17 21 mph 1017.2mb 45f 32f
7:42 16 20 mph 1017.1mb 45f 32f
7:36 18 23 mph 1017mb 45f 31f
7:30 20 22 mph 1016.8mb 45f 31f
7:24 18 22 mph 1016.7mb 45f 31f
7:18 20 23 mph 1016.6mb 45f 32f
7:12 21 25 mph 1016.4mb 45f 32f
7:06 22 25 mph 1016.4mb 45f 32f
7:00 22 24 mph 1016.3mb 45f 33f
6:54 20 22 mph 1016.3mb 45f 32f
6:48 18 21 mph 1016.3mb 45f 32f
6:42 18 22 mph 1016.3mb 45f 33f
6:36 17 21 mph 1016.4mb 45f 33f
6:30 20 23 mph 1016.3mb 45f 32f
6:24 20 23 mph 1016.1mb 45f 32f
6:18 22 24 mph 1016mb 45f 32f
6:12 20 22 mph 1015.9mb 45f 32f
6:06 22 24 mph 1015.8mb 45f 32f
6:00 21 23 mph 1015.8mb 45f 32f
5:54 22 25 mph 1015.7mb 45f 32f
5:48 22 24 mph 1015.6mb 45f 33f
5:42 20 23 mph 1015.5mb 45f 32f
5:36 20 25 mph 1015.4mb 45f 32f
5:30 20 22 mph 1015.3mb 45f 33f
5:24 21 24 mph 1015.3mb 45f 32f
5:18 18 22 mph 1015.4mb 45f 32f
5:12 20 23 mph 1015.3mb 45f 32f
5:06 21 23 mph 1015.2mb 45f 32f
5:00 18 21 mph 1015.3mb 45f 32f
4:54 17 21 mph 1015.3mb 45f 32f
4:48 18 22 mph 1015.3mb 45f 32f
4:42 18 22 mph 1015.2mb 45f 32f
4:36 18 22 mph 1015.4mb 45f 32f
4:30 17 21 mph 1015.3mb 45f 32f
4:24 17 21 mph 1015.3mb 45f 32f
4:18 15 21 mph 1015.4mb 45f 32f
4:12 18 21 mph 1015.3mb 45f 32f
4:06 18 21 mph 1015.3mb 45f 32f
4:00 17 21 mph 1015.3mb 45f 33f
3:54 17 18 mph 1015.3mb 45f 32f
3:48 15 21 mph 1015.3mb 45f 33f
3:42 18 20 mph 1015.3mb 45f 32f
3:36 17 21 mph 1015.2mb 45f 32f
3:30 17 21 mph 1015.2mb 45f 32f
3:24 20 22 mph 1015.1mb 45f 33f
3:18 18 22 mph 1015.1mb 45f 33f
3:12 17 22 mph 1015.1mb 45f 33f
3:06 18 21 mph 1015.1mb 45f 33f
3:00 18 21 mph 1015mb 45f 33f
2:54 20 22 mph 1015mb 45f 33f
2:48 17 22 mph 1015mb 45f 33f
2:36 16 20 mph 1015.1mb 45f 33f
2:30 15 18 mph 1015.2mb 45f 33f
2:24 14 16 mph 1015.3mb 45f 33f
2:18 14 17 mph 1015.3mb 45f 33f
2:12 15 17 mph 1015.3mb 45f 33f
2:06 16 17 mph 1015.3mb 45f 33f
2:00 15 18 mph 1015.2mb 45f 33f
1:54 15 17 mph 1015.3mb 45f 33f
1:48 15 18 mph 1015.2mb 45f 33f
1:30 16 18 mph 1015.2mb 45f 33f
1:18 16 20 mph 1015.1mb 45f 33f
1:12 17 20 mph 1015.1mb 45f 33f
1:06 14 17 mph 1015.1mb 45f 33f
1:00 16 18 mph 1015.1mb 45f 33f
12:54 14 16 mph 1015.1mb 45f 33f
12:48 11 15 mph 1015.1mb 45f 33f
12:42 11 15 mph 1015.1mb 45f 33f
12:36 13 15 mph 1015.1mb 45f 33f
12:30 13 15 mph 1015.2mb 45f 33f
12:24 13 15 mph 1015.2mb 46f 33f
12:18 14 16 mph 1015.3mb 46f 33f
12:12 11 14 mph 1015.4mb 46f 33f
12:06 13 15 mph 1015.5mb 46f 33f
12:00 13 15 mph 1015.5mb 46f 33f
jeu. 11/27 11:54 14 15 mph 1015.5mb 46f 33f
11:48 11 15 mph 1015.6mb 46f 33f
11:24 13 15 mph 1015.7mb 46f 33f
11:18 11 17 mph 1015.8mb 46f 33f
11:12 14 17 mph 1015.8mb 46f 34f
11:06 14 16 mph 1015.8mb 46f 33f
11:00 13 15 mph 1015.9mb 46f 33f
10:54 11 14 mph 1016mb 46f 33f
10:48 10 14 mph 1015.9mb 46f 34f
10:42 13 15 mph 1015.9mb 46f 34f
10:36 14 15 mph 1015.9mb 46f 34f
10:30 14 15 mph 1015.9mb 46f 34f
10:24 13 15 mph 1015.8mb 46f 34f
10:18 13 16 mph 1015.7mb 46f 34f
10:12 14 15 mph 1015.7mb 46f 34f
10:06 14 15 mph 1015.7mb 46f 34f
10:00 14 16 mph 1015.7mb 46f 34f
9:54 14 17 mph 1015.5mb 46f 34f
9:48 14 18 mph 1015.5mb 46f 34f
9:42 15 16 mph 1015.4mb 46f 34f
9:36 15 17 mph 1015.4mb 46f 34f
9:30 15 17 mph 1015.5mb 46f 34f
9:24 15 17 mph 1015.5mb 46f 34f
9:18 14 15 mph - 46f 34f
9:12 13 15 mph - 46f 34f
9:06 14 16 mph - 46f 34f
9:00 13 15 mph 1015.6mb 46f 34f
8:54 14 16 mph 1015.6mb 46f 34f
8:48 13 14 mph 1015.7mb 46f 34f
8:42 13 14 mph 1015.7mb 46f 34f
8:36 13 14 mph 1015.7mb 46f 34f
8:30 13 16 mph 1015.7mb 46f 34f
8:24 14 15 mph 1015.7mb 46f 34f
8:18 14 15 mph 1015.7mb 46f 34f
8:12 14 16 mph 1015.7mb 46f 34f
8:06 14 17 mph 1015.7mb 46f 34f
8:00 14 15 mph 1015.7mb 46f 34f
7:54 9 13 mph 1015.7mb 46f 35f
7:48 10 13 mph 1015.6mb 46f 35f
7:42 11 14 mph 1015.6mb 46f 35f
7:36 13 14 mph 1015.6mb 46f 34f
7:30 11 14 mph 1015.6mb 46f 35f
7:24 13 14 mph 1015.6mb 46f 35f
7:18 13 14 mph 1015.6mb 46f 35f
7:12 13 14 mph 1015.6mb 46f 35f
7:06 11 14 mph 1015.5mb 46f 35f
7:00 10 14 mph 1015.5mb 46f 35f
6:54 13 14 mph 1015.4mb 46f 35f
6:48 13 14 mph 1015.4mb 46f 35f
6:42 11 15 mph 1015.4mb 46f 36f
6:36 13 14 mph 1015.4mb 46f 35f
6:30 13 15 mph 1015.4mb 46f 35f
6:24 13 14 mph 1015.3mb 46f 36f
6:18 13 14 mph 1015.3mb 46f -
6:12 11 15 mph 1015.2mb 46f -
6:06 13 14 mph 1015.2mb 46f -
6:00 11 14 mph 1015.1mb 46f 37f
5:54 13 15 mph 1015mb 46f 37f
5:48 11 14 mph 1014.9mb 46f 38f
5:42 11 14 mph 1014.9mb 46f 38f
5:36 10 13 mph 1014.9mb 46f 38f
5:30 13 14 mph 1014.8mb 46f 38f
5:24 11 14 mph 1014.8mb 46f 38f
5:18 11 13 mph 1014.8mb 46f 38f
5:12 10 11 mph 1014.8mb 46f 38f
5:06 10 11 mph 1014.8mb 46f 38f
5:00 10 13 mph 1014.8mb 46f 38f
4:54 11 13 mph 1014.7mb 46f 38f
4:48 10 13 mph 1014.7mb 46f 38f
4:42 10 13 mph 1014.6mb 46f 38f
4:36 10 13 mph 1014.5mb 46f 38f
4:30 11 13 mph 1014.5mb 46f 38f
4:24 10 14 mph 1014.5mb 46f 38f
4:18 10 13 mph 1014.4mb 46f 38f
4:12 11 13 mph 1014.4mb 46f 38f
4:06 10 13 mph 1014.3mb 46f 38f
4:00 11 14 mph 1014.3mb 46f 38f
3:54 11 13 mph 1014.3mb 46f 38f
3:48 10 13 mph 1014.3mb 46f 38f
3:42 10 13 mph 1014.3mb 46f 38f
3:36 10 14 mph 1014.2mb 46f 38f
3:30 10 15 mph 1014.2mb 46f 38f
3:24 9 13 mph 1014.1mb 46f 38f
3:18 9 13 mph 1014.1mb 46f 38f
3:12 8 9 mph 1014mb 46f 39f
3:06 9 10 mph 1014mb 46f 38f
3:00 7 8 mph 1014.1mb 46f 39f
2:54 6 8 mph 1014mb 46f 38f
2:48 7 11 mph 1013.9mb 46f 39f
2:42 7 9 mph 1013.8mb 46f 39f
2:36 9 10 mph 1013.8mb 46f 38f
2:30 8 10 mph 1013.8mb 46f 39f
2:24 6 7 mph 1013.7mb 46f 39f
2:18 6 10 mph 1013.7mb 46f 39f
2:12 6 8 mph 1013.7mb 46f 39f
2:06 7 9 mph 1013.7mb 46f 40f
2:00 6 7 mph 1013.8mb 46f 40f
1:54 3 7 mph 1013.8mb 46f 40f
1:48 6 8 mph 1013.7mb 46f 39f
1:42 6 8 mph 1013.7mb 46f 40f
1:36 7 8 mph 1013.6mb 46f 41f
1:30 6 8 mph 1013.6mb 46f 41f
1:24 6 7 mph 1013.6mb 46f 41f
1:18 3 6 mph 1013.6mb 46f 41f
1:12 6 7 mph 1013.6mb 46f 41f
1:06 2 7 mph 1013.7mb 46f 41f
1:00 5 6 mph 1013.7mb 46f 40f
12:54 5 6 mph 1013.8mb 46f 41f
12:48 6 7 mph 1013.8mb 46f 41f
12:42 3 5 mph 1013.9mb 46f 41f
12:36 5 6 mph 1013.9mb 46f 40f
12:30 5 7 mph 1013.9mb 46f 40f
12:24 6 8 mph 1013.8mb 46f 40f
12:18 7 9 mph 1013.8mb 46f 40f
12:12 8 10 mph 1013.8mb 46f 39f
12:06 9 10 mph 1013.7mb 46f 39f
12:00 9 10 mph 1013.7mb 46f 38f
11:54 9 10 mph 1013.7mb 46f 38f
11:48 9 10 mph 1013.7mb 46f 39f
11:42 9 11 mph 1013.6mb 46f 38f
11:36 10 11 mph 1013.6mb 46f 39f
11:30 10 11 mph 1013.6mb 46f 40f
11:24 9 13 mph 1013.7mb 46f 40f
11:18 10 13 mph 1013.7mb 46f 40f
11:12 9 11 mph 1013.8mb 46f 40f
11:06 11 13 mph 1013.9mb 46f 38f
11:00 10 14 mph 1013.9mb 46f 39f
10:54 10 11 mph 1013.9mb 46f 39f
10:48 10 11 mph 1014mb 46f 39f
10:42 8 10 mph 1014.1mb 46f 38f
10:36 9 10 mph 1014.1mb 46f 39f
10:30 7 9 mph 1014.4mb 46f 38f
10:24 7 9 mph 1014.6mb 46f 37f
10:18 7 9 mph 1014.7mb 46f 36f
10:12 9 10 mph 1014.7mb 46f 36f
10:06 8 10 mph 1014.8mb 46f 36f
10:00 9 11 mph 1014.8mb 46f 36f
9:54 9 10 mph 1014.7mb 46f 36f
9:48 8 10 mph 1014.6mb 46f 36f
9:42 9 11 mph 1014.6mb 46f 36f
9:36 9 10 mph 1014.6mb 46f 36f
9:30 9 10 mph 1014.6mb 46f 36f
9:24 8 9 mph 1014.5mb 46f 36f
9:18 8 10 mph 1014.4mb 46f 35f
9:12 8 9 mph 1014.3mb 46f 35f
9:06 10 11 mph 1014.2mb 46f 35f
9:00 8 11 mph 1014mb 46f 35f
8:54 9 10 mph 1014mb 46f 35f
8:48 9 10 mph 1013.9mb 46f 35f
8:42 9 11 mph 1013.8mb 46f 35f
8:36 8 9 mph 1013.7mb 46f 35f
8:30 7 9 mph 1013.7mb 46f 35f
8:24 6 8 mph 1013.5mb 46f 35f
8:18 6 7 mph 1013.3mb 46f 35f
8:12 5 7 mph 1013.2mb 46f 35f
8:06 6 8 mph 1013mb 46f 35f
8:00 6 7 mph 1013mb 46f 35f
7:54 5 6 mph 1012.9mb 46f 35f
7:48 5 8 mph 1012.7mb 46f 35f
7:42 7 10 mph 1012.5mb 46f 35f
7:36 8 10 mph 1012.3mb 46f 35f
7:30 8 10 mph 1012.1mb 46f 35f
7:24 9 11 mph 1011.8mb 46f 35f
7:18 9 14 mph 1011.6mb 46f 35f
7:12 10 14 mph 1011.3mb 46f 35f
7:06 13 15 mph 1011mb 46f 35f
7:00 14 16 mph 1010.8mb 46f 35f
6:54 13 16 mph 1010.7mb 46f 35f
6:48 14 16 mph 1010.6mb 46f 35f
6:42 15 18 mph 1010.4mb 46f 35f
6:36 16 18 mph 1010.3mb 46f 36f
6:30 16 18 mph 1010.2mb 46f 36f
6:24 15 18 mph 1010.3mb 46f 35f
6:18 15 18 mph 1010.4mb 46f 35f
6:12 17 20 mph 1010.4mb 46f 35f
6:06 15 18 mph 1010.3mb 46f 35f
6:00 16 18 mph 1010.1mb 46f 35f
5:54 15 18 mph 1010.1mb 46f 35f
5:48 16 18 mph 1010.1mb 46f 35f
5:42 16 20 mph 1009.8mb 46f 36f
5:36 15 17 mph 1009.7mb 46f 36f
5:30 15 16 mph 1009.4mb 46f 35f
5:24 14 16 mph 1009.6mb 46f 35f
5:18 13 16 mph 1009.6mb 46f 36f
5:12 14 16 mph 1009.6mb 46f 36f
5:06 14 16 mph 1009.5mb 46f 36f
5:00 14 16 mph 1009.4mb 46f 36f
4:54 14 16 mph 1009.4mb 46f 36f
4:48 15 18 mph 1009.4mb 46f 36f
4:42 13 18 mph 1009.3mb 46f 36f
4:36 15 18 mph 1009.3mb 46f 36f
4:30 14 20 mph 1009.3mb 46f 36f
4:24 16 18 mph 1009.1mb 46f 36f
4:18 14 18 mph 1009.1mb 46f 36f
4:12 15 16 mph 1009mb 46f 36f
4:06 15 20 mph 1009mb 46f 36f
4:00 17 22 mph 1008.9mb 46f 36f
3:54 18 21 mph 1008.8mb 46f 36f
3:48 17 22 mph 1008.6mb 46f 36f
3:42 18 21 mph 1008.6mb 46f 35f
3:36 16 20 mph 1008.5mb 46f 36f
3:30 18 22 mph 1008.2mb 46f 35f
3:24 21 26 mph 1007.9mb 46f 37f
3:18 22 29 mph 1007.7mb 46f 36f
3:12 24 29 mph 1007.5mb 46f 36f
3:06 24 32 mph 1007.5mb 46f 36f
3:00 28 32 mph 1007.3mb 46f 36f
2:54 26 31 mph 1007.2mb 46f 36f
2:48 24 29 mph 1007.2mb 46f 36f
2:42 25 28 mph 1006.9mb 46f 36f
2:36 23 29 mph 1006.9mb 46f 36f
2:30 25 30 mph 1006.7mb 46f 36f
2:24 28 32 mph 1006.5mb 46f 36f
2:18 24 33 mph 1006.5mb 46f 36f
2:12 26 30 mph 1006.4mb 46f 36f
2:06 28 32 mph 1006.5mb 46f 36f
2:00 29 32 mph 1006.3mb 46f 36f
1:54 26 34 mph 1006mb 46f 36f
1:48 25 32 mph 1005.9mb 46f 36f
1:42 25 31 mph 1005.6mb 46f 36f
1:36 26 32 mph 1005.3mb 46f 36f
1:30 29 36 mph 1005.2mb 46f 36f
1:24 31 37 mph 1005mb 46f 36f
1:18 29 36 mph 1004.9mb 46f 35f
1:12 31 36 mph 1004.7mb 46f 36f
1:06 30 36 mph 1004.6mb 46f 36f
1:00 29 36 mph 1004.4mb 46f 36f
12:54 29 36 mph 1004.2mb 46f 36f
12:48 28 33 mph 1004.1mb 46f 36f
12:42 28 32 mph 1004.3mb 46f 36f
12:36 25 33 mph 1004.3mb 46f 36f
12:30 29 33 mph 1004.2mb 46f 36f
12:24 25 32 mph 1004.1mb 46f 36f
12:18 29 37 mph 1003.9mb 46f 36f
12:12 25 32 mph 1004mb 46f 36f
12:06 26 32 mph 1003.9mb 46f 36f
12:00 31 33 mph 1003.5mb 46f 36f
mer. 11/26 11:54 25 33 mph 1003.7mb 46f 36f
11:48 25 31 mph 1003.6mb 46f 36f
11:42 26 38 mph 1003.4mb 46f 36f
11:36 30 34 mph 1003.1mb 46f 36f
11:30 29 34 mph 1003.4mb 46f 36f
11:24 29 34 mph 1003.4mb 46f 36f
11:18 30 37 mph 1003.1mb 46f 36f
11:12 28 33 mph 1003mb 46f 35f
11:06 25 38 mph 1003.1mb 46f 36f
11:00 28 32 mph 1002.7mb 46f 35f
10:54 29 36 mph 1002.6mb 46f 36f
10:48 29 37 mph 1002.8mb 46f 35f
10:42 32 40 mph 1003mb 46f 36f
10:30 30 39 mph 1002.9mb 46f 36f
10:24 29 36 mph 1002.7mb 46f 36f
10:18 25 38 mph 1002.7mb 46f 36f
10:12 29 41 mph 1002.8mb 46f 36f
10:06 33 37 mph 1002.3mb 46f 37f
10:00 32 39 mph 1002mb 46f 37f
9:54 37 46 mph 1002.3mb 46f 36f
9:48 33 39 mph 1002.5mb 46f 37f
9:42 30 34 mph 1002.6mb 46f 37f
9:36 26 30 mph 1002.6mb 46f 37f
9:30 26 30 mph 1002.6mb 46f 37f
9:24 24 30 mph 1002.7mb 46f 37f
9:18 24 31 mph 1002.9mb 46f 38f
9:12 26 30 mph 1002.9mb 46f 38f
9:06 23 32 mph 1003mb 46f 40f
9:00 23 30 mph 1003mb 46f 40f
8:54 21 28 mph 1003.9mb 46f 40f
8:48 18 25 mph 1003.8mb 46f 40f
8:42 21 24 mph 1003.6mb 46f 41f
8:36 21 30 mph 1003.4mb 46f 41f
8:30 28 32 mph 1003.6mb 46f 41f
8:24 20 31 mph 1004.8mb 46f 41f
8:12 23 29 mph 1004.4mb 46f 41f
7:54 20 30 mph 1004.1mb 46f 41f
7:48 24 28 mph 1003.5mb 46f 41f
7:42 21 29 mph 1004.5mb 46f 41f
7:36 22 33 mph 1004.3mb 46f 41f
7:24 21 26 mph 1004.7mb 46f 41f
7:18 26 33 mph 1003.4mb 47f 40f
7:12 26 36 mph 1003.8mb 47f 40f
7:06 23 33 mph 1004.6mb 47f 41f
6:54 25 31 mph 1004.4mb 47f 40f
6:48 24 29 mph 1004.8mb 47f 40f
6:42 25 37 mph 1005mb 47f 40f
6:36 23 30 mph 1005.1mb 47f 40f
6:30 22 30 mph 1005.4mb 47f 40f
6:24 20 28 mph 1006.1mb 47f 40f
6:18 20 29 mph 1006.2mb 47f 40f
6:12 20 26 mph 1006.8mb 47f 40f
6:06 18 28 mph 1007.1mb 47f 40f
6:00 22 29 mph 1006.5mb 47f 40f
5:54 22 31 mph 1007.3mb 47f 40f
5:48 21 29 mph 1007.7mb 47f 40f
5:42 21 26 mph 1008mb 47f 40f
5:36 18 24 mph 1008.1mb 47f 39f
5:30 21 28 mph 1007.7mb 47f 39f
5:24 18 25 mph 1007.9mb 47f 38f
5:18 21 30 mph 1007.9mb 47f 38f
5:12 22 25 mph 1008.3mb 47f 38f
5:06 17 25 mph 1009.6mb 47f 38f
5:00 20 25 mph 1009.6mb 47f 38f
4:54 15 24 mph 1010.4mb 47f 37f
4:48 21 25 mph 1010mb 47f 38f
4:42 18 23 mph 1009.6mb 47f 37f
4:36 22 28 mph 1009.7mb 47f 37f
4:30 22 26 mph 1009.5mb 47f 37f
4:24 20 25 mph 1010.1mb 47f 37f
4:18 23 26 mph 1010.3mb 47f 37f
4:12 21 28 mph 1010.6mb 47f 37f
4:06 22 28 mph 1010.9mb 47f 37f
4:00 26 30 mph 1010.8mb 47f 37f
3:54 25 30 mph 1011.6mb 47f 37f
3:48 17 23 mph 1012.5mb 47f 37f
3:42 15 25 mph 1012.8mb 47f 37f
3:36 20 26 mph 1011.8mb 47f 37f
3:30 22 26 mph 1011.6mb 47f 37f
3:24 23 29 mph 1012mb 47f 37f
3:18 25 30 mph 1012mb 47f 37f
3:12 23 26 mph 1013mb 47f 37f
3:06 23 29 mph 1013.3mb 47f 37f
3:00 21 25 mph 1013.6mb 47f 37f
2:54 21 24 mph 1013.9mb 47f 37f
2:48 22 25 mph 1014.4mb 47f 37f
2:42 20 26 mph 1014.3mb 47f 37f
2:36 23 26 mph 1014.4mb 47f 37f
2:30 21 24 mph 1014.7mb 47f 37f
2:24 18 22 mph 1014.5mb 47f 37f
2:18 17 22 mph 1015.1mb 47f 37f
2:12 21 24 mph 1015.7mb 47f 37f
2:06 20 23 mph 1015.7mb 47f 37f
2:00 21 23 mph 1015.1mb 47f 37f
1:54 20 23 mph 1015.7mb 47f 37f
1:48 18 21 mph 1015.9mb 47f 37f
1:42 18 22 mph 1015.7mb 47f 37f
1:36 18 24 mph 1015.9mb 47f 37f
1:30 18 24 mph 1015.6mb 47f 37f
1:24 18 23 mph 1015.7mb 47f 37f
1:18 17 24 mph 1016mb 47f 37f
1:12 20 24 mph 1015.4mb 47f 37f
1:00 21 23 mph 1015.1mb 47f 37f
12:54 18 22 mph 1016.4mb 47f 37f
12:48 17 21 mph 1016.4mb 47f 37f
12:42 20 24 mph 1015.9mb 47f 37f
12:36 18 22 mph 1016.1mb 47f 37f
12:30 18 22 mph 1017mb 47f 37f
12:24 17 22 mph 1017.6mb 47f 37f
12:18 18 22 mph 1018.1mb 47f 38f
12:12 17 22 mph 1018.4mb 47f 38f
12:06 18 22 mph 1018.3mb 47f 38f
12:00 15 18 mph 1018.6mb 47f 39f
11:54 16 20 mph 1018.7mb 47f 39f
11:48 15 17 mph 1018.7mb 47f 39f
11:42 16 21 mph 1018.7mb 47f 39f
11:36 15 20 mph 1018.9mb 47f 39f
11:30 16 18 mph 1018.6mb 46f 39f
11:24 14 17 mph 1018.7mb 46f 39f
11:18 13 17 mph 1018.9mb 46f 39f
11:12 11 14 mph 1019.2mb 46f 40f
11:06 10 14 mph 1019.6mb 46f 40f
11:00 11 15 mph 1020mb 46f 40f
10:54 11 15 mph 1020mb 46f 40f
10:48 8 17 mph 1020.7mb 46f 40f
10:42 9 15 mph 1020.2mb 46f 40f
10:36 9 13 mph 1020.1mb 46f 40f
10:30 10 15 mph 1019.9mb 46f 40f
10:24 13 16 mph 1019.8mb 46f 40f
10:18 14 15 mph 1020mb 46f 40f
10:12 13 17 mph 1020mb 46f 40f
10:06 11 15 mph 1019.9mb 46f 40f
10:00 10 15 mph 1020.1mb 46f 40f
9:54 13 16 mph 1019.9mb 46f 40f
9:48 13 15 mph 1020.1mb 46f 41f
9:42 10 11 mph 1020.8mb 46f 41f
9:36 8 13 mph 1021.7mb 46f 41f
9:30 7 9 mph 1021.4mb 46f 41f
9:24 7 11 mph 1021.3mb 46f 41f
9:18 10 11 mph 1021.1mb 47f 41f
9:12 9 11 mph 1021.1mb 47f 42f
9:06 10 13 mph 1021.1mb 47f 42f
9:00 9 10 mph 1021.1mb 47f 42f
8:54 5 7 mph 1022.1mb 47f 43f
8:48 6 8 mph 1022.2mb 47f 43f
8:42 7 10 mph 1022.3mb 47f 44f
8:36 7 9 mph 1022.1mb 47f 44f
8:30 9 11 mph 1022mb 47f 44f
8:24 8 14 mph 1021.9mb 47f 45f
8:18 11 15 mph 1021.2mb 47f 45f
8:12 10 13 mph 1021.1mb 47f 45f
8:06 10 13 mph 1021.2mb 47f 45f
8:00 10 14 mph 1020.9mb 47f 45f
7:54 13 16 mph 1020.6mb 47f 45f
7:48 14 16 mph 1020.3mb 47f 46f
7:42 14 15 mph 1020.5mb 47f 46f
7:36 14 16 mph 1020.6mb 47f 46f
7:30 14 15 mph 1020.6mb 47f 46f
7:24 11 13 mph 1020.7mb 47f 46f
7:18 11 15 mph 1020.5mb 47f 46f
7:12 14 16 mph 1020.4mb 47f 46f
7:06 14 17 mph 1020.5mb 47f 46f
7:00 13 15 mph 1020.8mb 47f 46f
6:54 13 17 mph 1020.9mb 47f 46f
6:48 15 17 mph 1020.8mb 47f 46f
6:42 16 18 mph 1020.8mb 47f 46f
6:36 15 21 mph 1021mb 47f 46f
6:30 16 20 mph 1021mb 47f 46f
6:24 14 16 mph 1020.9mb 47f 46f
6:18 14 17 mph 1020.9mb 47f 46f
6:12 14 16 mph 1020.9mb 47f 46f
6:06 11 14 mph 1020.8mb 47f 46f
6:00 11 14 mph 1020.9mb 47f 47f
5:54 10 14 mph 1021mb 47f 47f
5:48 11 13 mph 1020.9mb 47f 47f
5:42 10 14 mph 1020.8mb 47f 47f
5:36 11 15 mph 1020.6mb 47f 47f
5:30 9 11 mph 1020.8mb 47f 47f
5:24 9 13 mph 1020.8mb 47f 47f
5:18 9 13 mph 1020.6mb 47f 47f
5:12 10 13 mph 1020.6mb 47f 47f
5:06 10 13 mph 1020.6mb 47f 47f
5:00 10 16 mph 1020.9mb 48f 47f
4:54 15 16 mph 1021mb 48f 47f
4:48 15 18 mph 1021mb 48f 47f
4:42 17 20 mph 1021.1mb 48f 47f
4:36 16 18 mph 1021.2mb 48f 47f
4:30 14 17 mph 1021.7mb 48f 48f
4:24 16 17 mph 1021.9mb 48f 48f
4:18 14 16 mph 1022mb 48f 48f
4:12 14 15 mph 1021.7mb 48f 47f
4:06 14 16 mph 1021.9mb 48f 48f
4:00 15 16 mph 1021.9mb 48f 48f
3:54 14 15 mph 1022.1mb 48f 48f
3:48 13 15 mph 1021.9mb 48f 48f
3:42 11 14 mph 1021.9mb 48f 48f
3:36 10 11 mph 1021.7mb 48f 47f
3:30 9 10 mph 1021.9mb 48f 47f
3:24 8 9 mph 1021.9mb 48f 47f
3:18 8 9 mph 1021.7mb 48f 47f
3:12 9 10 mph 1021.3mb 48f 47f
3:06 8
mph
1021.4mb 48f 47f
3:00 8 9 mph 1021.6mb 48f 48f
2:54 9 11 mph 1021.5mb 48f 48f
2:48 10 11 mph 1021.2mb 48f 47f
2:42 8 9 mph 1021.3mb 48f 47f
2:36 7
mph
1021.7mb 48f 47f
2:30 7
mph
1021.3mb 48f 47f
2:24 6
mph
1021.8mb 48f 47f
2:18 5 6 mph 1021.5mb 48f 47f
2:12 5 7 mph 1021.2mb 48f 47f
2:06 6 8 mph 1021.1mb 48f 47f
2:00 8
mph
1021mb 48f 47f
1:54 8
mph
1020.8mb 48f 47f
1:48 7 8 mph 1020.7mb 48f 47f
1:42 7 9 mph 1020.9mb 48f 47f
1:36 9 10 mph 1020.8mb 48f 48f
1:30 8 10 mph 1020.8mb 48f 48f
1:24 8 10 mph 1020.7mb 48f 48f
1:18 8 10 mph 1020.6mb 48f 48f
1:12 8 9 mph 1020.4mb 48f 48f
1:06 7
mph
1020.3mb 48f 48f
1:00 6 7 mph 1020.1mb 48f 48f
12:54 6 7 mph 1020.2mb 48f 48f
12:48 6 8 mph 1020.3mb 48f 48f
12:42 8 9 mph 1020.5mb 48f 48f
12:36 8 10 mph 1020.6mb 48f 48f
12:30 8 9 mph 1020.6mb 47f 48f
12:24 7 9 mph 1020.5mb 47f 48f
12:18 6 8 mph 1020.3mb 47f 48f
12:12 6 8 mph 1020.2mb 47f 48f
12:06 8 10 mph 1020.2mb 47f 48f
12:00 8 9 mph 1020.2mb 47f 48f
mar. 11/25 11:54 8 9 mph 1020.3mb 47f 48f
11:48 8 9 mph 1020.3mb 47f 48f
11:42 8 10 mph 1020.2mb 47f 48f
11:36 9 11 mph 1020.2mb 47f 49f
11:30 10 11 mph 1020.2mb 47f 49f
11:24 9 11 mph 1020mb 47f 49f
11:18 9 10 mph 1019.9mb 47f 49f
11:12 9 10 mph 1019.7mb 47f 49f
11:06 8 10 mph 1019.4mb 47f 49f
11:00 9 10 mph 1019.5mb 47f 49f
10:54 8 10 mph 1019.4mb 47f 49f
10:48 8 10 mph 1019.3mb 47f 49f
10:42 8 9 mph 1019.5mb 47f 49f
10:36 8 10 mph 1019.5mb 47f 49f
10:30 9 10 mph 1019.6mb 47f 49f
10:24 9 10 mph 1019.5mb 47f 49f
10:18 8 10 mph 1019.1mb 47f 49f
10:12 9 10 mph 1019.1mb 47f 49f
10:06 8 9 mph 1019.1mb 47f 49f
10:00 8 10 mph 1019.1mb 47f 49f
9:54 8
mph
1019mb 47f 49f
9:48 7 8 mph 1018.9mb 47f 49f
9:42 7 8 mph 1018.8mb 47f 49f
9:36 7 8 mph 1018.5mb 47f 49f
9:30 8 9 mph 1018.5mb 47f 49f
9:24 8 9 mph 1018.8mb 47f 49f
9:18 8 9 mph 1018.7mb 47f 49f
9:12 9 10 mph 1018.5mb 47f 50f
9:06 9 10 mph 1018.4mb 47f 50f
9:00 8 10 mph 1018.2mb 47f 50f
8:54 9 10 mph 1018.1mb 47f 50f
8:48 9 11 mph 1018.3mb 47f 50f
8:42 8 9 mph 1018.2mb 47f 50f
8:36 6 9 mph 1017.9mb 47f 50f
8:30 7 8 mph 1018.3mb - 50f
8:24 6 8 mph 1018.3mb - 50f
8:18 6 9 mph 1018mb 47f 51f
8:12 7 9 mph 1017.8mb 47f 51f
8:06 8 10 mph 1017.6mb 47f 51f
8:00 10 11 mph 1017.5mb 47f 51f
7:54 10 14 mph 1017.3mb 47f 51f
7:48 11 13 mph 1017.2mb 47f 51f
7:42 10 11 mph 1017.1mb 47f 51f
7:36 9 10 mph 1017mb 47f 51f
7:30 9 10 mph 1016.9mb 47f 52f
7:24 8 9 mph 1016.6mb 47f 52f
7:18 6 7 mph 1016.5mb 47f 52f
7:12 7 8 mph 1016.7mb 47f 52f
7:06 9 11 mph 1016.7mb 47f 52f
7:00 10 11 mph 1016.5mb 47f 53f
6:54 10 13 mph 1016.4mb 48f 53f
6:48 10 14 mph 1016.4mb 48f 53f
6:42 10 15 mph 1016.3mb 48f 53f
6:36 13 15 mph 1016.3mb 48f 53f
6:30 13 14 mph 1016.1mb 48f 53f
6:24 11 13 mph 1016.1mb 48f 53f
6:18 10 13 mph 1015.8mb 48f 53f
6:12 10 13 mph 1015.6mb 48f 54f
6:06 10 13 mph 1015.6mb 48f 54f
6:00 11 16 mph 1015.6mb 48f 54f
5:54 11 14 mph 1015.6mb 48f 54f
5:48 11 14 mph 1015.7mb 48f 54f
5:42 11 15 mph 1015.8mb 48f 54f
5:36 13 15 mph 1015.6mb 48f 55f
5:30 13 17 mph 1015.5mb 48f 55f
5:24 14 17 mph 1015.2mb 48f 55f
5:18 11 14 mph 1015.1mb 48f 55f
5:06 10 11 mph 1015mb 48f 55f
5:00 9 10 mph 1014.8mb 48f 54f
4:54 11 14 mph 1014.8mb 48f 55f
4:48 13
mph
1014.8mb 48f 54f
4:42 8 10 mph 1014.5mb 48f 51f
4:36 10 11 mph 1014.6mb 48f 54f
4:30 10 13 mph 1014.4mb 48f 56f
4:24 11 14 mph 1014.3mb 48f 56f
4:18 11 13 mph 1014.2mb 48f 56f
4:12 10 13 mph 1014mb 48f 56f
4:06 11 13 mph 1013.7mb 48f 56f
4:00 10 13 mph 1013.8mb 48f 56f
3:54 8 10 mph 1013.3mb 48f 57f
3:48 9 11 mph 1013.6mb 48f 57f
3:42 9 10 mph 1013.8mb 49f 57f
3:36 9 14 mph 1013.4mb 49f 57f
3:30 10 13 mph 1013.6mb 49f 57f
3:24 10 14 mph 1013.3mb 49f 57f
3:18 10 13 mph 1013.1mb 49f 56f
3:12 13 14 mph 1013.4mb 49f 57f
3:06 13 14 mph 1013.4mb 49f 57f
3:00 11 14 mph 1013.1mb 49f 58f
2:54 11 14 mph 1013.3mb 49f 57f
2:48 10 14 mph 1013.6mb 49f 57f
2:42 10 14 mph 1013.4mb 49f 58f
2:36 9 10 mph 1013.1mb 49f 58f
2:30 9 13 mph 1013.1mb 49f 58f
2:24 8 14 mph 1012.9mb 49f 58f
2:18 10 13 mph 1013.2mb 49f 58f
2:06 10 14 mph 1013mb 49f 58f
2:00 10 13 mph 1013.1mb 49f 58f
1:54 11 15 mph 1013.1mb 49f 58f
1:48 11 14 mph 1013.1mb 49f 58f
1:42 13 17 mph 1013mb 48f 58f
1:36 14 15 mph 1013.2mb 48f 58f
1:30 13 14 mph 1013mb 48f 58f
1:24 13 14 mph 1012.8mb 48f 58f
1:18 13 15 mph 1012.8mb 48f 59f
1:12 13 15 mph 1012.8mb 48f 59f
1:06 13 15 mph 1013mb 48f 59f
1:00 11 14 mph 1012.8mb 48f 58f
12:54 11 15 mph 1012.8mb 48f 59f
12:48 11 14 mph 1012.8mb 48f 59f
12:42 11 15 mph 1012.7mb 48f 59f
12:36 11 14 mph 1012.8mb 47f 59f
12:30 10 14 mph 1012.8mb 47f 59f
12:24 13 15 mph 1013mb 47f 59f
12:18 11 14 mph 1013mb 47f 58f
12:12 14 17 mph 1013mb 47f 59f
12:06 13 16 mph 1013.1mb 47f 60f
12:00 14 17 mph 1013.3mb 47f 60f
11:54 15 17 mph 1013.3mb 47f 60f
11:48 14 16 mph 1013.2mb 47f 59f
11:42 14 20 mph 1013.1mb 47f 61f
11:36 20 23 mph 1013.2mb 47f 61f
11:30 17 21 mph 1013.1mb 47f 61f
11:24 14 17 mph 1013mb 47f 60f
11:18 16 21 mph 1013.1mb 47f 60f
11:12 15 21 mph 1012.9mb 47f 60f
11:06 14 15 mph 1013mb 47f 60f
11:00 15 17 mph 1012.9mb 47f 61f
10:54 11 18 mph 1012.8mb 47f 62f
10:48 15 20 mph 1013mb 47f 62f
10:42 14 18 mph 1012.7mb 47f 62f
10:36 14 18 mph 1012.5mb 47f 62f
10:30 14 20 mph 1012.7mb 47f 62f
10:24 16 20 mph 1012.4mb 47f 62f
10:18 15 20 mph 1012.4mb 47f 62f
10:12 10 15 mph 1012.4mb 47f 56f